sensor_id;sensor_type;location;lat;lon;timestamp;P1;durP1;ratioP1;P2;durP2;ratioP2
14118;SDS011;7138;49.246;9.100;2023-03-19T00:01:18;16.85;;;7.70;;
14118;SDS011;7138;49.246;9.100;2023-03-19T00:03:44;12.70;;;6.75;;
14118;SDS011;7138;49.246;9.100;2023-03-19T00:06:11;12.50;;;5.10;;
14118;SDS011;7138;49.246;9.100;2023-03-19T00:08:38;12.70;;;5.45;;
14118;SDS011;7138;49.246;9.100;2023-03-19T00:11:06;9.00;;;4.93;;
14118;SDS011;7138;49.246;9.100;2023-03-19T00:13:32;10.30;;;4.65;;
14118;SDS011;7138;49.246;9.100;2023-03-19T00:15:58;11.82;;;5.07;;
14118;SDS011;7138;49.246;9.100;2023-03-19T00:18:24;13.63;;;6.10;;
14118;SDS011;7138;49.246;9.100;2023-03-19T00:20:50;10.45;;;5.50;;
14118;SDS011;7138;49.246;9.100;2023-03-19T00:23:16;14.35;;;5.05;;
14118;SDS011;7138;49.246;9.100;2023-03-19T00:25:43;13.90;;;5.07;;
14118;SDS011;7138;49.246;9.100;2023-03-19T00:28:09;10.13;;;4.97;;
14118;SDS011;7138;49.246;9.100;2023-03-19T00:30:36;11.48;;;4.93;;
14118;SDS011;7138;49.246;9.100;2023-03-19T00:33:01;9.70;;;5.82;;
14118;SDS011;7138;49.246;9.100;2023-03-19T00:35:27;9.10;;;4.80;;
14118;SDS011;7138;49.246;9.100;2023-03-19T00:37:53;12.52;;;5.22;;
14118;SDS011;7138;49.246;9.100;2023-03-19T00:40:19;10.23;;;4.88;;
14118;SDS011;7138;49.246;9.100;2023-03-19T00:42:47;10.13;;;4.80;;
14118;SDS011;7138;49.246;9.100;2023-03-19T00:45:13;12.80;;;5.65;;
14118;SDS011;7138;49.246;9.100;2023-03-19T00:47:39;11.52;;;5.50;;
14118;SDS011;7138;49.246;9.100;2023-03-19T00:50:06;12.07;;;4.72;;
14118;SDS011;7138;49.246;9.100;2023-03-19T00:52:33;9.73;;;4.95;;
14118;SDS011;7138;49.246;9.100;2023-03-19T00:54:59;11.75;;;5.03;;
14118;SDS011;7138;49.246;9.100;2023-03-19T00:57:25;11.57;;;4.50;;
14118;SDS011;7138;49.246;9.100;2023-03-19T00:59:52;8.45;;;3.53;;
14118;SDS011;7138;49.246;9.100;2023-03-19T01:02:18;6.95;;;3.30;;
14118;SDS011;7138;49.246;9.100;2023-03-19T01:04:46;7.18;;;2.83;;
14118;SDS011;7138;49.246;9.100;2023-03-19T01:07:13;8.77;;;3.42;;
14118;SDS011;7138;49.246;9.100;2023-03-19T01:09:39;4.95;;;2.40;;
14118;SDS011;7138;49.246;9.100;2023-03-19T01:12:06;8.55;;;2.80;;
14118;SDS011;7138;49.246;9.100;2023-03-19T01:14:32;11.98;;;2.80;;
14118;SDS011;7138;49.246;9.100;2023-03-19T01:17:00;7.85;;;3.35;;
14118;SDS011;7138;49.246;9.100;2023-03-19T01:19:25;7.18;;;4.13;;
14118;SDS011;7138;49.246;9.100;2023-03-19T01:21:51;7.65;;;3.40;;
14118;SDS011;7138;49.246;9.100;2023-03-19T01:24:17;6.20;;;3.22;;
14118;SDS011;7138;49.246;9.100;2023-03-19T01:26:43;8.45;;;3.90;;
14118;SDS011;7138;49.246;9.100;2023-03-19T01:29:09;11.82;;;4.65;;
14118;SDS011;7138;49.246;9.100;2023-03-19T01:31:35;8.45;;;3.50;;
14118;SDS011;7138;49.246;9.100;2023-03-19T01:34:03;5.25;;;2.90;;
14118;SDS011;7138;49.246;9.100;2023-03-19T01:36:28;6.07;;;3.05;;
14118;SDS011;7138;49.246;9.100;2023-03-19T01:38:55;7.60;;;3.08;;
14118;SDS011;7138;49.246;9.100;2023-03-19T01:41:21;9.77;;;4.00;;
14118;SDS011;7138;49.246;9.100;2023-03-19T01:43:47;7.40;;;3.63;;
14118;SDS011;7138;49.246;9.100;2023-03-19T01:46:15;8.75;;;5.05;;
14118;SDS011;7138;49.246;9.100;2023-03-19T01:48:52;10.13;;;5.20;;
14118;SDS011;7138;49.246;9.100;2023-03-19T01:51:25;10.00;;;4.53;;
14118;SDS011;7138;49.246;9.100;2023-03-19T01:53:56;7.93;;;4.00;;
14118;SDS011;7138;49.246;9.100;2023-03-19T01:56:27;8.30;;;4.22;;
14118;SDS011;7138;49.246;9.100;2023-03-19T01:58:58;9.75;;;4.40;;
14118;SDS011;7138;49.246;9.100;2023-03-19T02:01:32;7.43;;;4.30;;
14118;SDS011;7138;49.246;9.100;2023-03-19T02:04:05;10.68;;;5.20;;
14118;SDS011;7138;49.246;9.100;2023-03-19T02:06:33;13.52;;;6.38;;
14118;SDS011;7138;49.246;9.100;2023-03-19T02:08:59;8.88;;;5.70;;
14118;SDS011;7138;49.246;9.100;2023-03-19T02:11:26;12.88;;;6.20;;
14118;SDS011;7138;49.246;9.100;2023-03-19T02:13:53;14.55;;;6.00;;
14118;SDS011;7138;49.246;9.100;2023-03-19T02:16:19;11.52;;;6.90;;
14118;SDS011;7138;49.246;9.100;2023-03-19T02:18:45;15.07;;;7.15;;
14118;SDS011;7138;49.246;9.100;2023-03-19T02:21:13;12.93;;;7.07;;
14118;SDS011;7138;49.246;9.100;2023-03-19T02:23:44;13.73;;;6.83;;
14118;SDS011;7138;49.246;9.100;2023-03-19T02:26:22;13.57;;;7.35;;
14118;SDS011;7138;49.246;9.100;2023-03-19T02:28:51;11.32;;;7.32;;
14118;SDS011;7138;49.246;9.100;2023-03-19T02:31:17;10.35;;;7.20;;
14118;SDS011;7138;49.246;9.100;2023-03-19T02:33:55;12.68;;;6.72;;
14118;SDS011;7138;49.246;9.100;2023-03-19T02:36:23;12.23;;;6.80;;
14118;SDS011;7138;49.246;9.100;2023-03-19T02:38:56;11.23;;;6.93;;
14118;SDS011;7138;49.246;9.100;2023-03-19T02:41:28;13.30;;;7.32;;
14118;SDS011;7138;49.246;9.100;2023-03-19T02:43:56;14.20;;;6.75;;
14118;SDS011;7138;49.246;9.100;2023-03-19T02:46:25;11.55;;;7.40;;
14118;SDS011;7138;49.246;9.100;2023-03-19T02:48:51;11.30;;;6.95;;
14118;SDS011;7138;49.246;9.100;2023-03-19T02:51:17;13.27;;;6.78;;
14118;SDS011;7138;49.246;9.100;2023-03-19T02:53:44;11.15;;;7.35;;
14118;SDS011;7138;49.246;9.100;2023-03-19T02:56:10;12.43;;;7.60;;
14118;SDS011;7138;49.246;9.100;2023-03-19T02:58:37;13.10;;;7.47;;
14118;SDS011;7138;49.246;9.100;2023-03-19T03:01:03;14.15;;;8.43;;
14118;SDS011;7138;49.246;9.100;2023-03-19T03:03:30;14.43;;;8.02;;
14118;SDS011;7138;49.246;9.100;2023-03-19T03:05:56;13.88;;;7.57;;
14118;SDS011;7138;49.246;9.100;2023-03-19T03:08:22;11.27;;;7.00;;
14118;SDS011;7138;49.246;9.100;2023-03-19T03:10:48;9.57;;;6.32;;
14118;SDS011;7138;49.246;9.100;2023-03-19T03:13:14;9.90;;;6.25;;
14118;SDS011;7138;49.246;9.100;2023-03-19T03:15:41;14.00;;;6.95;;
14118;SDS011;7138;49.246;9.100;2023-03-19T03:18:07;11.90;;;7.10;;
14118;SDS011;7138;49.246;9.100;2023-03-19T03:20:33;11.95;;;7.32;;
14118;SDS011;7138;49.246;9.100;2023-03-19T03:22:59;13.93;;;7.00;;
14118;SDS011;7138;49.246;9.100;2023-03-19T03:25:25;16.27;;;7.40;;
14118;SDS011;7138;49.246;9.100;2023-03-19T03:27:51;12.32;;;8.05;;
14118;SDS011;7138;49.246;9.100;2023-03-19T03:30:17;15.30;;;7.47;;
14118;SDS011;7138;49.246;9.100;2023-03-19T03:32:44;12.77;;;7.63;;
14118;SDS011;7138;49.246;9.100;2023-03-19T03:35:10;11.80;;;7.43;;
14118;SDS011;7138;49.246;9.100;2023-03-19T03:37:37;12.38;;;7.25;;
14118;SDS011;7138;49.246;9.100;2023-03-19T03:40:04;14.48;;;7.40;;
14118;SDS011;7138;49.246;9.100;2023-03-19T03:42:32;13.15;;;7.65;;
14118;SDS011;7138;49.246;9.100;2023-03-19T03:45:00;11.40;;;7.28;;
14118;SDS011;7138;49.246;9.100;2023-03-19T03:47:26;13.88;;;7.97;;
14118;SDS011;7138;49.246;9.100;2023-03-19T03:49:53;13.15;;;7.32;;
14118;SDS011;7138;49.246;9.100;2023-03-19T03:52:19;15.32;;;7.93;;
14118;SDS011;7138;49.246;9.100;2023-03-19T03:54:45;12.68;;;7.25;;
14118;SDS011;7138;49.246;9.100;2023-03-19T03:57:11;15.18;;;8.73;;
14118;SDS011;7138;49.246;9.100;2023-03-19T03:59:37;14.82;;;9.20;;
14118;SDS011;7138;49.246;9.100;2023-03-19T04:02:02;13.77;;;8.52;;
14118;SDS011;7138;49.246;9.100;2023-03-19T04:04:28;14.70;;;8.15;;
14118;SDS011;7138;49.246;9.100;2023-03-19T04:06:56;14.80;;;8.70;;
14118;SDS011;7138;49.246;9.100;2023-03-19T04:09:22;15.43;;;8.38;;
14118;SDS011;7138;49.246;9.100;2023-03-19T04:11:48;12.40;;;8.32;;
14118;SDS011;7138;49.246;9.100;2023-03-19T04:14:14;16.13;;;8.50;;
14118;SDS011;7138;49.246;9.100;2023-03-19T04:16:40;13.90;;;8.00;;
14118;SDS011;7138;49.246;9.100;2023-03-19T04:19:08;14.45;;;9.43;;
14118;SDS011;7138;49.246;9.100;2023-03-19T04:21:33;13.75;;;9.20;;
14118;SDS011;7138;49.246;9.100;2023-03-19T04:24:01;17.30;;;10.13;;
14118;SDS011;7138;49.246;9.100;2023-03-19T04:26:26;13.10;;;8.88;;
14118;SDS011;7138;49.246;9.100;2023-03-19T04:28:52;11.85;;;9.07;;
14118;SDS011;7138;49.246;9.100;2023-03-19T04:31:18;17.77;;;9.98;;
14118;SDS011;7138;49.246;9.100;2023-03-19T04:33:44;18.27;;;9.77;;
14118;SDS011;7138;49.246;9.100;2023-03-19T04:36:10;15.85;;;9.52;;
14118;SDS011;7138;49.246;9.100;2023-03-19T04:38:36;13.95;;;9.07;;
14118;SDS011;7138;49.246;9.100;2023-03-19T04:41:04;14.57;;;9.38;;
14118;SDS011;7138;49.246;9.100;2023-03-19T04:43:29;15.55;;;9.80;;
14118;SDS011;7138;49.246;9.100;2023-03-19T04:45:56;15.52;;;9.75;;
14118;SDS011;7138;49.246;9.100;2023-03-19T04:48:22;15.07;;;9.80;;
14118;SDS011;7138;49.246;9.100;2023-03-19T04:50:48;18.20;;;9.43;;
14118;SDS011;7138;49.246;9.100;2023-03-19T04:53:16;16.00;;;9.57;;
14118;SDS011;7138;49.246;9.100;2023-03-19T04:55:43;15.93;;;9.52;;
14118;SDS011;7138;49.246;9.100;2023-03-19T04:58:10;19.60;;;10.63;;
14118;SDS011;7138;49.246;9.100;2023-03-19T05:00:36;17.52;;;9.80;;
14118;SDS011;7138;49.246;9.100;2023-03-19T05:03:02;15.27;;;9.75;;
14118;SDS011;7138;49.246;9.100;2023-03-19T05:05:28;14.80;;;10.10;;
14118;SDS011;7138;49.246;9.100;2023-03-19T05:07:54;15.27;;;8.93;;
14118;SDS011;7138;49.246;9.100;2023-03-19T05:10:21;13.45;;;9.93;;
14118;SDS011;7138;49.246;9.100;2023-03-19T05:12:47;15.77;;;10.70;;
14118;SDS011;7138;49.246;9.100;2023-03-19T05:15:14;15.75;;;10.73;;
14118;SDS011;7138;49.246;9.100;2023-03-19T05:17:40;16.60;;;10.93;;
14118;SDS011;7138;49.246;9.100;2023-03-19T05:20:07;12.80;;;9.93;;
14118;SDS011;7138;49.246;9.100;2023-03-19T05:22:36;16.88;;;11.60;;
14118;SDS011;7138;49.246;9.100;2023-03-19T05:25:02;16.15;;;10.30;;
14118;SDS011;7138;49.246;9.100;2023-03-19T05:27:29;13.75;;;10.18;;
14118;SDS011;7138;49.246;9.100;2023-03-19T05:29:55;14.43;;;9.65;;
14118;SDS011;7138;49.246;9.100;2023-03-19T05:32:22;15.18;;;9.63;;
14118;SDS011;7138;49.246;9.100;2023-03-19T05:34:47;17.85;;;8.95;;
14118;SDS011;7138;49.246;9.100;2023-03-19T05:37:14;14.02;;;9.65;;
14118;SDS011;7138;49.246;9.100;2023-03-19T05:39:41;13.18;;;9.20;;
14118;SDS011;7138;49.246;9.100;2023-03-19T05:42:07;13.82;;;9.77;;
14118;SDS011;7138;49.246;9.100;2023-03-19T05:44:33;14.60;;;9.40;;
14118;SDS011;7138;49.246;9.100;2023-03-19T05:46:59;14.63;;;9.88;;
14118;SDS011;7138;49.246;9.100;2023-03-19T05:49:26;13.90;;;9.82;;
14118;SDS011;7138;49.246;9.100;2023-03-19T05:51:52;12.73;;;9.48;;
14118;SDS011;7138;49.246;9.100;2023-03-19T05:54:18;14.38;;;9.80;;
14118;SDS011;7138;49.246;9.100;2023-03-19T05:56:44;13.35;;;10.18;;
14118;SDS011;7138;49.246;9.100;2023-03-19T05:59:10;15.65;;;9.63;;
14118;SDS011;7138;49.246;9.100;2023-03-19T06:01:35;14.30;;;9.32;;
14118;SDS011;7138;49.246;9.100;2023-03-19T06:04:01;15.38;;;9.52;;
14118;SDS011;7138;49.246;9.100;2023-03-19T06:06:28;15.15;;;9.73;;
14118;SDS011;7138;49.246;9.100;2023-03-19T06:08:54;16.83;;;10.13;;
14118;SDS011;7138;49.246;9.100;2023-03-19T06:11:20;16.75;;;10.25;;
14118;SDS011;7138;49.246;9.100;2023-03-19T06:13:46;13.30;;;10.07;;
14118;SDS011;7138;49.246;9.100;2023-03-19T06:16:12;16.17;;;10.85;;
14118;SDS011;7138;49.246;9.100;2023-03-19T06:18:37;16.63;;;10.15;;
14118;SDS011;7138;49.246;9.100;2023-03-19T06:21:04;20.85;;;10.38;;
14118;SDS011;7138;49.246;9.100;2023-03-19T06:23:31;15.98;;;9.73;;
14118;SDS011;7138;49.246;9.100;2023-03-19T06:25:57;15.80;;;9.27;;
14118;SDS011;7138;49.246;9.100;2023-03-19T06:28:23;15.30;;;9.00;;
14118;SDS011;7138;49.246;9.100;2023-03-19T06:30:49;11.20;;;7.55;;
14118;SDS011;7138;49.246;9.100;2023-03-19T06:33:15;15.23;;;9.43;;
14118;SDS011;7138;49.246;9.100;2023-03-19T06:35:41;15.52;;;9.48;;
14118;SDS011;7138;49.246;9.100;2023-03-19T06:38:07;10.32;;;7.70;;
14118;SDS011;7138;49.246;9.100;2023-03-19T06:40:34;13.30;;;8.35;;
14118;SDS011;7138;49.246;9.100;2023-03-19T06:43:00;11.18;;;7.20;;
14118;SDS011;7138;49.246;9.100;2023-03-19T06:45:25;11.32;;;6.63;;
14118;SDS011;7138;49.246;9.100;2023-03-19T06:47:52;11.13;;;6.97;;
14118;SDS011;7138;49.246;9.100;2023-03-19T06:50:18;9.88;;;6.63;;
14118;SDS011;7138;49.246;9.100;2023-03-19T06:52:44;9.77;;;5.68;;
14118;SDS011;7138;49.246;9.100;2023-03-19T06:55:10;11.25;;;5.70;;
14118;SDS011;7138;49.246;9.100;2023-03-19T06:57:37;11.75;;;5.70;;
14118;SDS011;7138;49.246;9.100;2023-03-19T07:00:04;10.48;;;5.70;;
14118;SDS011;7138;49.246;9.100;2023-03-19T07:02:34;13.20;;;7.20;;
14118;SDS011;7138;49.246;9.100;2023-03-19T07:05:00;10.27;;;6.35;;
14118;SDS011;7138;49.246;9.100;2023-03-19T07:07:26;9.50;;;6.65;;
14118;SDS011;7138;49.246;9.100;2023-03-19T07:09:52;12.07;;;6.90;;
14118;SDS011;7138;49.246;9.100;2023-03-19T07:12:18;11.63;;;6.50;;
14118;SDS011;7138;49.246;9.100;2023-03-19T07:14:45;10.95;;;6.50;;
14118;SDS011;7138;49.246;9.100;2023-03-19T07:17:11;12.07;;;6.28;;
14118;SDS011;7138;49.246;9.100;2023-03-19T07:19:36;9.50;;;6.22;;
14118;SDS011;7138;49.246;9.100;2023-03-19T07:22:02;12.43;;;6.68;;
14118;SDS011;7138;49.246;9.100;2023-03-19T07:24:28;12.70;;;7.40;;
14118;SDS011;7138;49.246;9.100;2023-03-19T07:26:54;10.32;;;6.70;;
14118;SDS011;7138;49.246;9.100;2023-03-19T07:29:20;9.90;;;6.70;;
14118;SDS011;7138;49.246;9.100;2023-03-19T07:31:47;12.45;;;7.97;;
14118;SDS011;7138;49.246;9.100;2023-03-19T07:34:13;8.32;;;5.22;;
14118;SDS011;7138;49.246;9.100;2023-03-19T07:36:39;9.57;;;5.30;;
14118;SDS011;7138;49.246;9.100;2023-03-19T07:39:05;8.55;;;4.68;;
14118;SDS011;7138;49.246;9.100;2023-03-19T07:41:31;10.52;;;5.35;;
14118;SDS011;7138;49.246;9.100;2023-03-19T07:43:56;10.55;;;5.57;;
14118;SDS011;7138;49.246;9.100;2023-03-19T07:46:22;9.38;;;5.32;;
14118;SDS011;7138;49.246;9.100;2023-03-19T07:48:50;8.88;;;4.78;;
14118;SDS011;7138;49.246;9.100;2023-03-19T07:51:16;7.43;;;4.55;;
14118;SDS011;7138;49.246;9.100;2023-03-19T07:53:42;8.55;;;4.97;;
14118;SDS011;7138;49.246;9.100;2023-03-19T07:56:08;7.88;;;4.90;;
14118;SDS011;7138;49.246;9.100;2023-03-19T07:58:35;9.38;;;4.72;;
14118;SDS011;7138;49.246;9.100;2023-03-19T08:01:01;8.73;;;4.82;;
14118;SDS011;7138;49.246;9.100;2023-03-19T08:03:27;8.95;;;4.57;;
14118;SDS011;7138;49.246;9.100;2023-03-19T08:05:54;9.95;;;5.20;;
14118;SDS011;7138;49.246;9.100;2023-03-19T08:08:20;7.78;;;5.15;;
14118;SDS011;7138;49.246;9.100;2023-03-19T08:10:46;8.23;;;4.75;;
14118;SDS011;7138;49.246;9.100;2023-03-19T08:13:14;7.13;;;4.28;;
14118;SDS011;7138;49.246;9.100;2023-03-19T08:15:40;8.63;;;4.10;;
14118;SDS011;7138;49.246;9.100;2023-03-19T08:18:06;9.13;;;3.95;;
14118;SDS011;7138;49.246;9.100;2023-03-19T08:20:33;8.50;;;4.13;;
14118;SDS011;7138;49.246;9.100;2023-03-19T08:23:00;7.65;;;4.00;;
14118;SDS011;7138;49.246;9.100;2023-03-19T08:25:26;7.90;;;3.95;;
14118;SDS011;7138;49.246;9.100;2023-03-19T08:27:56;9.75;;;4.25;;
14118;SDS011;7138;49.246;9.100;2023-03-19T08:30:22;7.35;;;3.55;;
14118;SDS011;7138;49.246;9.100;2023-03-19T08:32:47;7.22;;;3.90;;
14118;SDS011;7138;49.246;9.100;2023-03-19T08:35:14;5.25;;;3.33;;
14118;SDS011;7138;49.246;9.100;2023-03-19T08:37:40;7.55;;;3.78;;
14118;SDS011;7138;49.246;9.100;2023-03-19T08:40:09;7.13;;;3.58;;
14118;SDS011;7138;49.246;9.100;2023-03-19T08:42:36;7.60;;;3.83;;
14118;SDS011;7138;49.246;9.100;2023-03-19T08:45:07;7.65;;;4.05;;
14118;SDS011;7138;49.246;9.100;2023-03-19T08:47:35;6.05;;;3.65;;
14118;SDS011;7138;49.246;9.100;2023-03-19T08:50:02;6.63;;;3.70;;
14118;SDS011;7138;49.246;9.100;2023-03-19T08:52:30;9.02;;;3.85;;
14118;SDS011;7138;49.246;9.100;2023-03-19T08:54:56;7.00;;;3.63;;
14118;SDS011;7138;49.246;9.100;2023-03-19T08:57:23;8.32;;;3.90;;
14118;SDS011;7138;49.246;9.100;2023-03-19T08:59:52;6.78;;;3.47;;
14118;SDS011;7138;49.246;9.100;2023-03-19T09:02:18;8.50;;;3.80;;
14118;SDS011;7138;49.246;9.100;2023-03-19T09:04:43;6.97;;;3.75;;
14118;SDS011;7138;49.246;9.100;2023-03-19T09:07:10;7.93;;;3.90;;
14118;SDS011;7138;49.246;9.100;2023-03-19T09:09:37;5.80;;;3.28;;
14118;SDS011;7138;49.246;9.100;2023-03-19T09:12:04;6.57;;;3.80;;
14118;SDS011;7138;49.246;9.100;2023-03-19T09:14:32;6.38;;;3.30;;
14118;SDS011;7138;49.246;9.100;2023-03-19T09:16:58;8.40;;;3.47;;
14118;SDS011;7138;49.246;9.100;2023-03-19T09:19:24;7.40;;;3.40;;
14118;SDS011;7138;49.246;9.100;2023-03-19T09:21:51;7.85;;;3.20;;
14118;SDS011;7138;49.246;9.100;2023-03-19T09:24:16;5.10;;;3.10;;
14118;SDS011;7138;49.246;9.100;2023-03-19T09:26:43;5.25;;;2.80;;
14118;SDS011;7138;49.246;9.100;2023-03-19T09:29:09;6.05;;;3.20;;
14118;SDS011;7138;49.246;9.100;2023-03-19T09:31:37;5.25;;;2.80;;
14118;SDS011;7138;49.246;9.100;2023-03-19T09:34:03;6.25;;;3.28;;
14118;SDS011;7138;49.246;9.100;2023-03-19T09:36:31;8.52;;;3.10;;
14118;SDS011;7138;49.246;9.100;2023-03-19T09:38:57;6.97;;;2.95;;
14118;SDS011;7138;49.246;9.100;2023-03-19T09:41:26;7.53;;;2.75;;
14118;SDS011;7138;49.246;9.100;2023-03-19T09:44:00;7.65;;;2.78;;
14118;SDS011;7138;49.246;9.100;2023-03-19T09:46:31;7.18;;;3.00;;
14118;SDS011;7138;49.246;9.100;2023-03-19T09:49:11;6.65;;;2.88;;
14118;SDS011;7138;49.246;9.100;2023-03-19T09:51:47;5.18;;;2.50;;
14118;SDS011;7138;49.246;9.100;2023-03-19T09:54:21;4.82;;;2.58;;
14118;SDS011;7138;49.246;9.100;2023-03-19T09:56:55;5.50;;;2.60;;
14118;SDS011;7138;49.246;9.100;2023-03-19T09:59:22;6.85;;;2.38;;
14118;SDS011;7138;49.246;9.100;2023-03-19T10:01:54;6.13;;;2.47;;
14118;SDS011;7138;49.246;9.100;2023-03-19T10:04:43;7.20;;;2.58;;
14118;SDS011;7138;49.246;9.100;2023-03-19T10:07:28;5.22;;;2.67;;
14118;SDS011;7138;49.246;9.100;2023-03-19T10:10:20;5.40;;;2.40;;
14118;SDS011;7138;49.246;9.100;2023-03-19T10:13:10;5.10;;;2.50;;
14118;SDS011;7138;49.246;9.100;2023-03-19T10:15:49;5.75;;;2.20;;
14118;SDS011;7138;49.246;9.100;2023-03-19T10:18:19;6.63;;;2.50;;
14118;SDS011;7138;49.246;9.100;2023-03-19T10:20:52;8.07;;;2.50;;
14118;SDS011;7138;49.246;9.100;2023-03-19T10:23:32;7.63;;;2.22;;
14118;SDS011;7138;49.246;9.100;2023-03-19T10:26:08;4.88;;;2.10;;
14118;SDS011;7138;49.246;9.100;2023-03-19T10:28:37;6.05;;;2.20;;
14118;SDS011;7138;49.246;9.100;2023-03-19T10:31:12;7.15;;;2.65;;
14118;SDS011;7138;49.246;9.100;2023-03-19T10:33:55;4.07;;;2.28;;
14118;SDS011;7138;49.246;9.100;2023-03-19T10:36:33;4.63;;;2.30;;
14118;SDS011;7138;49.246;9.100;2023-03-19T10:39:01;5.95;;;2.25;;
14118;SDS011;7138;49.246;9.100;2023-03-19T10:41:33;4.30;;;1.95;;
14118;SDS011;7138;49.246;9.100;2023-03-19T10:44:13;5.63;;;2.30;;
14118;SDS011;7138;49.246;9.100;2023-03-19T10:46:52;5.43;;;1.90;;
14118;SDS011;7138;49.246;9.100;2023-03-19T10:49:23;4.53;;;2.10;;
14118;SDS011;7138;49.246;9.100;2023-03-19T10:51:49;6.10;;;2.38;;
14118;SDS011;7138;49.246;9.100;2023-03-19T10:54:20;4.95;;;2.60;;
14118;SDS011;7138;49.246;9.100;2023-03-19T10:56:49;4.35;;;2.13;;
14118;SDS011;7138;49.246;9.100;2023-03-19T10:59:22;5.88;;;2.42;;
14118;SDS011;7138;49.246;9.100;2023-03-19T11:01:56;5.13;;;2.28;;
14118;SDS011;7138;49.246;9.100;2023-03-19T11:04:26;6.32;;;2.08;;
14118;SDS011;7138;49.246;9.100;2023-03-19T11:06:54;5.50;;;2.03;;
14118;SDS011;7138;49.246;9.100;2023-03-19T11:09:29;5.35;;;1.98;;
14118;SDS011;7138;49.246;9.100;2023-03-19T11:12:04;4.13;;;1.95;;
14118;SDS011;7138;49.246;9.100;2023-03-19T11:14:41;5.15;;;2.00;;
14118;SDS011;7138;49.246;9.100;2023-03-19T11:17:15;6.10;;;2.15;;
14118;SDS011;7138;49.246;9.100;2023-03-19T11:19:51;6.38;;;1.95;;
14118;SDS011;7138;49.246;9.100;2023-03-19T11:22:20;4.35;;;1.45;;
14118;SDS011;7138;49.246;9.100;2023-03-19T11:24:51;3.60;;;1.70;;
14118;SDS011;7138;49.246;9.100;2023-03-19T11:27:27;3.50;;;1.60;;
14118;SDS011;7138;49.246;9.100;2023-03-19T11:29:56;4.00;;;1.63;;
14118;SDS011;7138;49.246;9.100;2023-03-19T11:32:32;3.47;;;1.50;;
14118;SDS011;7138;49.246;9.100;2023-03-19T11:35:29;4.22;;;1.50;;
14118;SDS011;7138;49.246;9.100;2023-03-19T11:38:01;3.72;;;1.52;;
14118;SDS011;7138;49.246;9.100;2023-03-19T11:40:33;6.57;;;2.00;;
14118;SDS011;7138;49.246;9.100;2023-03-19T11:43:23;6.10;;;1.48;;
14118;SDS011;7138;49.246;9.100;2023-03-19T11:46:24;3.55;;;1.50;;
14118;SDS011;7138;49.246;9.100;2023-03-19T11:49:27;4.47;;;1.50;;
14118;SDS011;7138;49.246;9.100;2023-03-19T11:52:13;4.15;;;1.60;;
14118;SDS011;7138;49.246;9.100;2023-03-19T11:54:58;4.43;;;1.70;;
14118;SDS011;7138;49.246;9.100;2023-03-19T11:57:51;3.63;;;1.38;;
14118;SDS011;7138;49.246;9.100;2023-03-19T12:00:38;4.28;;;1.40;;
14118;SDS011;7138;49.246;9.100;2023-03-19T12:06:42;3.25;;;1.52;;
14118;SDS011;7138;49.246;9.100;2023-03-19T12:09:27;3.78;;;1.38;;
14118;SDS011;7138;49.246;9.100;2023-03-19T12:12:09;3.22;;;1.40;;
14118;SDS011;7138;49.246;9.100;2023-03-19T12:14:50;3.90;;;1.50;;
14118;SDS011;7138;49.246;9.100;2023-03-19T12:17:35;6.38;;;1.73;;
14118;SDS011;7138;49.246;9.100;2023-03-19T12:20:18;3.80;;;1.33;;
14118;SDS011;7138;49.246;9.100;2023-03-19T12:23:07;3.90;;;1.77;;
14118;SDS011;7138;49.246;9.100;2023-03-19T12:25:55;3.40;;;1.50;;
14118;SDS011;7138;49.246;9.100;2023-03-19T12:28:29;4.35;;;1.50;;
14118;SDS011;7138;49.246;9.100;2023-03-19T12:31:05;3.55;;;1.50;;
14118;SDS011;7138;49.246;9.100;2023-03-19T12:34:04;3.80;;;1.48;;
14118;SDS011;7138;49.246;9.100;2023-03-19T12:36:48;5.05;;;1.50;;
14118;SDS011;7138;49.246;9.100;2023-03-19T12:39:20;4.55;;;1.90;;
14118;SDS011;7138;49.246;9.100;2023-03-19T12:41:55;3.85;;;1.60;;
14118;SDS011;7138;49.246;9.100;2023-03-19T12:44:27;5.65;;;1.70;;
14118;SDS011;7138;49.246;9.100;2023-03-19T12:47:00;7.93;;;1.83;;
14118;SDS011;7138;49.246;9.100;2023-03-19T12:49:30;3.83;;;1.20;;
14118;SDS011;7138;49.246;9.100;2023-03-19T12:52:07;4.70;;;1.70;;
14118;SDS011;7138;49.246;9.100;2023-03-19T12:54:46;5.10;;;1.42;;
14118;SDS011;7138;49.246;9.100;2023-03-19T12:57:23;3.90;;;1.40;;
14118;SDS011;7138;49.246;9.100;2023-03-19T13:00:00;3.17;;;1.50;;
14118;SDS011;7138;49.246;9.100;2023-03-19T13:02:32;5.10;;;1.63;;
14118;SDS011;7138;49.246;9.100;2023-03-19T13:05:08;5.22;;;1.35;;
14118;SDS011;7138;49.246;9.100;2023-03-19T13:07:49;5.40;;;1.60;;
14118;SDS011;7138;49.246;9.100;2023-03-19T13:10:23;2.83;;;1.58;;
14118;SDS011;7138;49.246;9.100;2023-03-19T13:12:55;4.32;;;1.23;;
14118;SDS011;7138;49.246;9.100;2023-03-19T13:15:25;4.80;;;1.45;;
14118;SDS011;7138;49.246;9.100;2023-03-19T13:18:00;8.93;;;1.67;;
14118;SDS011;7138;49.246;9.100;2023-03-19T13:20:47;4.40;;;1.70;;
14118;SDS011;7138;49.246;9.100;2023-03-19T13:23:30;4.95;;;1.60;;
14118;SDS011;7138;49.246;9.100;2023-03-19T13:26:02;4.78;;;1.58;;
14118;SDS011;7138;49.246;9.100;2023-03-19T13:28:35;4.50;;;1.70;;
14118;SDS011;7138;49.246;9.100;2023-03-19T13:31:03;5.28;;;1.83;;
14118;SDS011;7138;49.246;9.100;2023-03-19T13:33:32;7.50;;;1.70;;
14118;SDS011;7138;49.246;9.100;2023-03-19T13:36:01;5.85;;;1.70;;
14118;SDS011;7138;49.246;9.100;2023-03-19T13:38:33;5.18;;;1.50;;
14118;SDS011;7138;49.246;9.100;2023-03-19T13:41:05;4.03;;;1.60;;
14118;SDS011;7138;49.246;9.100;2023-03-19T13:44:34;5.30;;;1.67;;
14118;SDS011;7138;49.246;9.100;2023-03-19T13:47:35;7.40;;;2.47;;
14118;SDS011;7138;49.246;9.100;2023-03-19T13:50:19;5.32;;;1.80;;
14118;SDS011;7138;49.246;9.100;2023-03-19T13:52:53;5.60;;;1.52;;
14118;SDS011;7138;49.246;9.100;2023-03-19T13:55:52;5.32;;;1.67;;
14118;SDS011;7138;49.246;9.100;2023-03-19T13:58:22;4.90;;;1.38;;
14118;SDS011;7138;49.246;9.100;2023-03-19T14:01:10;5.68;;;1.80;;
14118;SDS011;7138;49.246;9.100;2023-03-19T14:03:59;6.38;;;1.60;;
14118;SDS011;7138;49.246;9.100;2023-03-19T14:06:29;4.28;;;1.48;;
14118;SDS011;7138;49.246;9.100;2023-03-19T14:12:07;7.70;;;1.83;;
14118;SDS011;7138;49.246;9.100;2023-03-19T14:14:53;5.82;;;1.80;;
14118;SDS011;7138;49.246;9.100;2023-03-19T14:17:26;4.88;;;1.80;;
14118;SDS011;7138;49.246;9.100;2023-03-19T14:19:57;4.75;;;1.70;;
14118;SDS011;7138;49.246;9.100;2023-03-19T14:25:20;4.63;;;1.63;;
14118;SDS011;7138;49.246;9.100;2023-03-19T14:27:49;4.32;;;1.48;;
14118;SDS011;7138;49.246;9.100;2023-03-19T14:30:28;6.35;;;1.60;;
14118;SDS011;7138;49.246;9.100;2023-03-19T14:33:04;3.67;;;1.70;;
14118;SDS011;7138;49.246;9.100;2023-03-19T14:35:40;4.97;;;1.60;;
14118;SDS011;7138;49.246;9.100;2023-03-19T14:38:10;4.20;;;1.60;;
14118;SDS011;7138;49.246;9.100;2023-03-19T14:40:49;5.18;;;1.90;;
14118;SDS011;7138;49.246;9.100;2023-03-19T14:43:16;5.80;;;1.75;;
14118;SDS011;7138;49.246;9.100;2023-03-19T14:46:03;4.03;;;1.70;;
14118;SDS011;7138;49.246;9.100;2023-03-19T14:48:44;5.13;;;1.88;;
14118;SDS011;7138;49.246;9.100;2023-03-19T14:51:56;3.42;;;1.55;;
14118;SDS011;7138;49.246;9.100;2023-03-19T14:54:29;7.22;;;1.92;;
14118;SDS011;7138;49.246;9.100;2023-03-19T14:57:06;4.82;;;1.90;;
14118;SDS011;7138;49.246;9.100;2023-03-19T14:59:39;4.28;;;1.88;;
14118;SDS011;7138;49.246;9.100;2023-03-19T15:02:16;6.53;;;2.20;;
14118;SDS011;7138;49.246;9.100;2023-03-19T15:04:53;4.45;;;1.80;;
14118;SDS011;7138;49.246;9.100;2023-03-19T15:07:20;4.70;;;1.63;;
14118;SDS011;7138;49.246;9.100;2023-03-19T15:09:53;4.72;;;1.70;;
14118;SDS011;7138;49.246;9.100;2023-03-19T15:12:26;5.53;;;1.33;;
14118;SDS011;7138;49.246;9.100;2023-03-19T15:15:14;3.78;;;1.40;;
14118;SDS011;7138;49.246;9.100;2023-03-19T15:17:49;5.65;;;1.50;;
14118;SDS011;7138;49.246;9.100;2023-03-19T15:20:25;5.05;;;1.40;;
14118;SDS011;7138;49.246;9.100;2023-03-19T15:22:54;5.60;;;1.35;;
14118;SDS011;7138;49.246;9.100;2023-03-19T15:25:24;5.63;;;1.50;;